Station: Cape Jaffa

  Atmospheric Gas Attenuation - ITU Rec 676-11   --------------- db/100km ---------------
Date Time Temp RH % AH g/m3 Dew Point Wind Direction Speed kph Gust kph Barometer mB Rainfall Since 9am 24GHz 47GHz 76GHz 122GHz 134GHz 241GHz
03 07:20 13.3 82 9.47 10.3 6 6 1013.1 0 21.5 27.5 43.6 114.6 110.8 381.7
03 07:10 12.8 82 9.19 9.9 4 6 1013.1 0 20.9 27.2 42.7 112.3 107.7 370.7
03 07:00 12.3 82 8.9 9.3 6 6 1021.2 0 20.3 27.1 42.2 110.6 105.1 361.6
03 06:50 12.1 82 8.79 9.1 4 6 1013.1 0 20.1 26.7 41.4 108.8 103.2 354.9
03 06:40 11.7 83 8.68 8.9 6 6 1013.1 0 19.9 26.6 41.2 108.2 102.2 351.5
03 06:30 11.7 84 8.79 9.1 6 6 1020.8 0 20.1 27.1 42.0 110.2 104.3 358.9
03 06:20 11.4 84 8.62 8.9 6 6 1013.1 0 19.7 26.6 41.1 107.9 101.8 350.0
03 06:10 10.6 86 8.4 8.3 6 6 1013.1 0 19.3 26.5 40.6 106.6 99.8 343.0
03 06:00 10.5 85 8.25 8.1 7 7 1020.5 0 19.0 26.6 40.4 105.8 98.5 338.3
03 05:50 10.2 84 8 7.6 7 7 1013.1 0 18.5 26.0 39.1 102.7 94.9 325.6
03 05:40 10.3 83 7.95 7.5 7 9 1013.1 0 18.4 25.8 38.9 102.0 94.1 322.8
03 05:30 10.9 82 8.16 8 9 13 1020.3 0 18.8 26.3 39.8 104.3 96.7 332.2
03 05:20 11 82 8.21 8 9 13 1013.1 0 18.9 26.1 39.6 103.9 96.7 332.2
03 05:00 12.8 79 8.85 9.3 11 15 1020.2 0 20.2 26.9 41.6 109.3 103.6 356.6
03 04:50 12.2 81 8.74 9 11 13 1013.1 0 20.0 26.6 41.2 108.1 102.3 352.1
03 04:40 12.1 82 8.79 9.1 11 13 1013.1 0 20.1 26.7 41.4 108.8 103.2 354.9
03 04:30 12.1 83 8.9 9.3 9 13 1020.1 0 20.3 27.2 42.2 110.8 105.3 362.2
03 04:20 11.3 83 8.47 8.5 9 11 1013.1 0 19.4 26.4 40.5 106.4 99.8 343.2
03 04:10 12.2 83 8.96 9.4 9 11 1013.1 0 20.4 27.0 42.1 110.6 105.3 362.6
03 04:00 12.5 82 9.02 9.5 9 13 1019.8 0 20.5 27.2 42.5 111.5 106.3 366.0
03 03:50 12.7 82 9.13 9.7 9 13 1013.1 0 20.8 27.1 42.5 111.7 107.0 368.3
03 03:40 12.9 82 9.24 9.9 13 15 1013.1 0 21.0 27.2 42.9 112.7 108.2 372.7
03 03:30 13.2 81 9.3 10 13 17 1019.6 0 21.1 27.5 43.3 113.6 109.2 376.0
03 03:20 13.2 80 9.19 9.8 13 15 1013.1 0 20.9 27.0 42.5 111.7 107.1 368.8
03 03:10 13.7 79 9.36 10.1 11 15 1013.1 0 21.2 27.2 42.9 112.8 108.7 374.5
03 03:00 14 78 9.41 10.2 11 17 1019.5 0 21.3 27.4 43.3 113.7 109.5 377.4
03 02:50 14.3 78 9.58 10.5 13 17 1013.1 0 21.7 27.3 43.5 114.4 110.8 382.1
03 02:40 14.3 77 9.46 10.3 11 13 1013.1 0 21.4 27.1 43.0 113.1 109.2 376.4
03 02:30 14.6 77 9.64 10.6 17 20 1019.5 0 21.8 27.6 43.9 115.3 111.8 385.4
03 02:20 14.4 79 9.77 10.8 19 20 1013.1 0 22.1 27.6 44.3 116.3 113.3 390.6
03 02:10 14.4 80 9.89 11 19 20 1013.1 0 22.3 27.8 44.8 117.7 114.9 396.4
03 02:00 14 79 9.53 10.4 17 20 1019.6 0 21.6 27.6 43.8 115.0 111.2 383.2
03 01:50 14.2 80 9.77 10.8 17 19 1013.1 0 22.1 27.7 44.4 116.6 113.6 391.7
03 01:40 14 79 9.53 10.4 13 15 1013.1 0 21.6 27.4 43.5 114.3 110.6 381.2
03 01:30 14.1 79 9.59 10.5 15 19 1019.7 0 21.7 27.7 44.0 115.5 111.9 385.6
03 01:20 14.6 78 9.76 10.8 19 20 1013.1 0 22.0 27.6 44.1 115.9 112.9 389.2
03 01:10 14.8 77 9.75 10.8 19 22 1013.1 0 22.0 27.5 43.9 115.5 112.4 387.7
03 01:00 15 78 10 11.2 15 19 1019.7 0 22.5 28.1 45.2 118.7 116.1 400.7
03 00:50 15.1 75 9.68 10.7 15 15 1013.1 0 21.8 27.3 43.5 114.3 111.0 382.9
03 00:40 14.9 75 9.56 10.5 11 13 1013.1 0 21.6 27.1 43.1 113.3 109.7 378.2
03 00:30 14.4 78 9.64 10.6 11 13 1019.9 0 21.8 27.7 44.0 115.7 112.1 386.5
03 00:20 13.6 75 8.83 9.2 9 11 1013.1 0 20.1 26.3 40.8 107.2 101.7 350.0
03 00:10 14.3 74 9.09 9.7 11 13 1013.1 0 20.6 26.5 41.5 109.0 104.2 359.0
03 00:00 14.7 74 9.32 10.1 11 15 1020 0 21.1 27.1 42.6 111.7 107.4 369.9
02 23:50 14.6 74 9.26 10 13 15 1013.1 0 21.0 26.7 42.0 110.5 106.1 365.6
02 23:40 14.5 74 9.2 9.9 13 15 1013.1 0 20.8 26.7 41.9 109.9 105.4 363.2
02 23:30 15 72 9.23 10 15 20 1020 0 20.9 26.8 42.0 110.3 105.8 364.3
02 23:20 15.2 70 9.09 9.9 17 17 1013.1 0 20.6 26.3 41.0 107.8 103.0 354.9
02 23:10 15.1 72 9.29 10.1 19 22 1013.1 0 21.0 26.6 41.9 110.1 105.8 364.6
02 23:00 14.4 74 9.15 9.8 17 22 1020.1 0 20.7 26.9 42.0 110.3 105.5 363.4
02 22:50 14.5 73 9.08 9.7 20 22 1013.1 0 20.6 26.5 41.4 108.6 103.8 357.6
02 22:40 14.6 72 9.01 9.6 24 28 1013.1 0 20.4 26.3 41.0 107.8 102.8 353.9
02 22:30 14.4 74 9.15 9.8 20 28 1019.9 0 20.7 26.9 42.0 110.3 105.5 363.3
02 22:20 14.4 73 9.02 9.6 20 24 1013.1 0 20.5 26.4 41.2 108.1 103.2 355.3
02 22:10 14.7 73 9.19 9.9 20 26 1013.1 0 20.8 26.6 41.7 109.6 105.0 361.8
02 22:00 14.6 72 9.01 9.6 24 30 1019.6 0 20.4 26.6 41.3 108.5 103.3 355.8
02 21:50 14.7 71 8.94 9.5 24 30 1013.1 0 20.3 26.2 40.7 106.9 101.7 350.2
02 21:40 14.7 70 8.81 9.3 26 32 1013.1 0 20.0 26.0 40.2 105.5 100.0 344.2
02 21:30 14.7 69 8.69 9.1 28 37 1019.3 0 19.7 26.0 40.0 104.9 98.9 340.4
02 21:20 14.8 68 8.61 9.1 28 32 1013.1 0 19.6 25.6 39.3 103.2 97.3 334.6
02 21:10 15 68 8.72 9.3 26 30 1013.1 0 19.8 25.7 39.7 104.1 98.4 338.8
02 21:00 15 68 8.72 9.1 26 37 1019.2 0 19.8 26.0 39.9 104.8 98.9 340.5
02 20:50 15 68 8.72 9.3 22 28 1013.1 0 19.8 25.7 39.7 104.1 98.4 338.8
02 20:40 15 68 8.72 9.3 30 33 1013.1 0 19.8 25.7 39.7 104.1 98.4 338.8
02 20:30 15 68 8.72 9.1 26 33 1018.9 0 19.8 26.0 39.9 104.7 98.9 340.4
02 20:20 15 67 8.59 8.9 26 33 1013.1 0 19.5 25.5 39.2 102.8 96.8 332.9
02 20:10 14.8 67 8.49 8.7 30 32 1013.1 0 19.3 25.4 38.9 102.0 95.7 329.2
02 20:00 14.9 64 8.16 8.2 28 39 1018.7 0 18.6 25.1 37.8 98.9 91.8 315.3
02 19:50 15.2 64 8.31 8.4 24 33 1013.1 0 18.9 25.0 38.0 99.6 92.9 319.4
02 19:40 15.1 63 8.13 8.1 28 32 1013.1 0 18.5 24.8 37.3 97.8 90.7 311.7
02 19:30 15.4 63 8.28 8.4 28 35 1018.5 0 18.8 25.1 38.0 99.5 92.7 318.7
02 19:20 15.9 60 8.13 8.1 28 33 1013.1 0 18.5 24.6 36.9 96.8 89.8 308.6
02 19:10 15.9 60 8.13 8.1 22 26 1013.1 0 18.5 24.6 36.9 96.8 89.8 308.6
02 19:00 15.8 59 7.94 7.8 30 37 1018.2 0 18.1 24.5 36.5 95.5 87.9 301.9
02 18:50 15.9 59 7.99 7.9 30 33 1013.1 0 18.2 24.3 36.4 95.4 88.0 302.5
02 18:40 15.8 57 7.67 7.3 37 41 1013.1 0 17.5 23.9 35.2 92.3 84.1 288.8
02 18:30 15.9 57 7.72 7.4 30 37 1017.9 0 17.6 24.1 35.6 93.1 85.0 291.8
02 18:20 16.4 55 7.68 7.3 30 32 1013.1 0 17.5 23.7 35.0 91.7 83.6 287.1
02 18:10 16.3 53 7.35 6.7 33 35 1013.1 0 16.8 23.3 33.8 88.5 79.7 273.3
02 18:00 16.6 53 7.49 7 33 41 1017.5 0 17.1 23.6 34.4 90.0 81.4 279.3
02 17:50 16.7 54 7.67 7.3 33 35 1013.1 0 17.5 23.6 34.8 91.3 83.2 285.6
02 17:40 16.8 54 7.72 7.4 30 35 1013.1 0 17.6 23.7 35.0 91.6 83.7 287.4
02 17:30 16.8 55 7.86 7.7 32 41 1017.2 0 17.9 24.0 35.7 93.4 85.7 294.4
02 17:20 17.6 54 8.1 8.4 30 41 1013.1 0 18.3 24.1 36.1 94.5 87.5 300.8
02 17:10 16.3 56 7.77 7.7 32 37 1013.1 0 17.7 23.9 35.4 92.7 84.8 291.4
02 17:00 16.3 55 7.63 7.3 33 43 1017.3 0 17.4 23.8 35.0 91.7 83.4 286.3
02 16:50 16.9 52 7.48 7.2 28 33 1013.1 0 17.1 23.3 34.1 89.2 80.7 276.8
02 16:40 17 54 7.81 7.6 33 37 1013.1 0 17.8 23.8 35.2 92.3 84.6 290.5
02 16:30 16.7 58 8.24 8.4 35 48 1017 0 18.7 24.6 37.2 97.4 90.6 311.4
02 16:20 17.6 56 8.4 8.9 32 39 1013.1 0 19.0 24.5 37.2 97.5 91.2 313.8
02 16:10 16.9 57 8.2 8.3 35 44 1013.1 0 18.6 24.4 36.7 96.3 89.5 307.8
02 16:00 17.5 57 8.5 8.9 33 44 1017.1 0 19.2 24.8 37.8 99.1 92.9 319.6
02 15:50 18 55 8.45 8.8 35 43 1013.1 0 19.1 24.5 37.2 97.5 91.4 314.4
02 15:40 18 56 8.6 9.3 30 41 1013.1 0 19.4 24.7 37.8 99.0 93.2 321.0
02 15:30 18 56 8.6 9.1 33 41 1017 0 19.4 24.8 37.9 99.4 93.5 322.0
02 15:20 17.9 53 8.09 8.4 28 35 1013.1 0 18.3 24.0 35.9 94.1 87.0 299.3
02 15:10 17.8 56 8.5 8.9 35 39 1013.1 0 19.2 24.6 37.5 98.3 92.2 317.4
02 15:00 17.4 58 8.6 9.1 35 43 1016.5 0 19.4 25.0 38.2 100.1 94.2 324.3
02 14:50 18.5 55 8.7 9.5 32 37 1013.1 0 19.6 24.7 37.9 99.4 93.9 323.3
02 14:40 18.1 58 8.96 9.7 26 32 1013.1 0 20.1 25.2 39.1 102.6 97.6 336.4

Last Refresh: 03-Dec-2021 07:31:18

Bureau of Meteorology